Time;durP1;ratioP1;P1;durP2;ratioP2;P2;SDS_P1;SDS_P2;PMS_P1;PMS_P2;Temp;Humidity;BMP_temperature;BMP_pressure;BME280_temperature;BME280_humidity;BME280_pressure;Samples;Min_cycle;Max_cycle;Signal;HPM_P1;HPM_P2
2021/06/11 00:00:50;;;;;;;16.38;14.30;;;17.20;99.90;;;;;;5115485;28;20065;-65
2021/06/11 00:03:16;;;;;;;15.93;14.13;;;17.20;99.90;;;;;;5113736;28;20020;-65
2021/06/11 00:05:42;;;;;;;17.75;13.57;;;17.10;99.90;;;;;;5115676;28;20095;-65
2021/06/11 00:08:09;;;;;;;16.42;14.70;;;17.10;99.90;;;;;;5113768;28;20577;-65
2021/06/11 00:10:35;;;;;;;18.90;17.02;;;17.00;99.90;;;;;;5115579;28;20070;-66
2021/06/11 00:13:01;;;;;;;20.58;18.17;;;17.00;99.90;;;;;;5114096;28;20047;-65
2021/06/11 00:15:27;;;;;;;22.15;18.40;;;17.20;99.90;;;;;;5115516;28;20373;-65
2021/06/11 00:17:53;;;;;;;21.58;17.60;;;17.40;99.90;;;;;;5115423;28;20030;-65
2021/06/11 00:20:20;;;;;;;21.58;17.20;;;17.40;99.90;;;;;;5114597;28;20499;-65
2021/06/11 00:22:46;;;;;;;21.42;15.73;;;17.40;99.90;;;;;;5115352;28;20512;-65
2021/06/11 00:25:15;;;;;;;18.42;16.48;;;17.50;99.90;;;;;;5115321;28;20065;-65
2021/06/11 00:27:41;;;;;;;18.77;16.63;;;17.40;99.90;;;;;;5114973;28;20028;-65
2021/06/11 00:30:08;;;;;;;19.63;17.27;;;17.30;99.90;;;;;;5114678;28;20094;-65
2021/06/11 00:32:34;;;;;;;19.08;16.52;;;17.10;99.90;;;;;;5114905;28;20034;-66
2021/06/11 00:35:00;;;;;;;18.58;16.55;;;17.00;99.90;;;;;;5114555;28;20034;-65
2021/06/11 00:37:25;;;;;;;18.42;16.50;;;17.00;99.90;;;;;;5115110;28;20024;-65
2021/06/11 00:39:51;;;;;;;20.25;17.33;;;16.90;99.90;;;;;;5114966;28;20028;-65
2021/06/11 00:42:16;;;;;;;18.60;16.60;;;16.90;99.90;;;;;;5115032;28;20084;-65
2021/06/11 00:44:42;;;;;;;18.17;16.33;;;16.80;99.90;;;;;;5114976;28;20069;-65
2021/06/11 00:47:08;;;;;;;20.67;17.02;;;16.70;99.90;;;;;;5114646;28;20058;-65
2021/06/11 00:49:33;;;;;;;19.85;16.73;;;16.70;99.90;;;;;;5114885;28;20027;-65
2021/06/11 00:51:59;;;;;;;18.77;16.55;;;16.70;99.90;;;;;;5114288;28;20020;-65
2021/06/11 00:54:25;;;;;;;19.45;16.75;;;16.60;99.90;;;;;;5114570;28;20444;-65
2021/06/11 00:56:51;;;;;;;19.85;17.73;;;16.50;99.90;;;;;;5114772;28;20034;-65
2021/06/11 00:59:18;;;;;;;19.45;17.52;;;16.50;99.90;;;;;;5113237;28;20031;-65
2021/06/11 01:01:44;;;;;;;20.73;18.27;;;16.50;99.90;;;;;;5114766;28;20016;-65
2021/06/11 01:04:10;;;;;;;21.02;17.98;;;16.50;99.90;;;;;;5114671;28;20030;-65
2021/06/11 01:06:39;;;;;;;22.13;18.00;;;16.40;99.90;;;;;;5114105;28;20027;-65
2021/06/11 01:09:06;;;;;;;19.85;17.75;;;16.40;99.90;;;;;;5113470;28;20111;-65
2021/06/11 01:11:31;;;;;;;20.13;17.90;;;16.40;99.90;;;;;;5113647;28;20024;-65
2021/06/11 01:13:58;;;;;;;21.10;18.88;;;16.30;99.90;;;;;;5114416;28;20028;-65
2021/06/11 01:16:24;;;;;;;19.60;17.48;;;16.30;99.90;;;;;;5114573;28;20031;-65
2021/06/11 01:18:50;;;;;;;20.27;18.23;;;16.20;99.90;;;;;;5112891;28;20052;-65
2021/06/11 01:21:19;;;;;;;21.40;19.10;;;16.20;99.90;;;;;;5113022;28;20020;-65
2021/06/11 01:24:14;;;;;;;21.17;18.52;;;16.10;99.90;;;;;;5114141;28;20409;-65
2021/06/11 01:26:44;;;;;;;20.63;18.42;;;16.10;99.90;;;;;;5114427;28;20024;-65
2021/06/11 01:29:15;;;;;;;23.02;19.52;;;16.00;99.90;;;;;;5113298;28;20143;-65
2021/06/11 01:31:44;;;;;;;23.08;19.98;;;16.00;99.90;;;;;;5114078;28;20027;-65
2021/06/11 01:34:15;;;;;;;23.63;19.73;;;15.90;99.90;;;;;;5112897;28;20350;-65
2021/06/11 01:36:45;;;;;;;24.42;20.25;;;15.90;99.90;;;;;;5114040;28;20361;-65
2021/06/11 01:39:14;;;;;;;23.15;19.88;;;15.90;99.90;;;;;;5112779;28;20020;-65
2021/06/11 01:41:40;;;;;;;22.30;19.67;;;15.90;99.90;;;;;;5114271;28;20067;-65
2021/06/11 01:44:09;;;;;;;23.30;20.10;;;15.80;99.90;;;;;;5113982;28;20024;-65
2021/06/11 01:46:35;;;;;;;22.85;20.00;;;15.80;99.90;;;;;;5114240;28;20019;-65
2021/06/11 01:49:03;;;;;;;27.73;21.45;;;15.80;99.90;;;;;;5113946;28;20114;-65
2021/06/11 01:51:30;;;;;;;24.27;20.35;;;15.80;99.90;;;;;;5114184;28;20035;-65
2021/06/11 01:53:59;;;;;;;25.75;21.92;;;15.70;99.90;;;;;;5114189;28;20062;-65
2021/06/11 01:56:26;;;;;;;26.75;21.02;;;15.70;99.90;;;;;;5112770;28;20480;-65
2021/06/11 01:58:52;;;;;;;22.15;19.75;;;15.70;99.90;;;;;;5114040;28;20027;-65
2021/06/11 02:01:18;;;;;;;24.92;21.63;;;15.60;99.90;;;;;;5114091;28;20471;-65
2021/06/11 02:03:46;;;;;;;35.58;23.02;;;15.60;99.90;;;;;;5114091;28;20448;-65
2021/06/11 02:06:15;;;;;;;27.90;22.15;;;15.60;99.90;;;;;;5114041;28;20461;-65
2021/06/11 02:08:43;;;;;;;27.60;23.08;;;15.60;99.90;;;;;;5114023;28;20047;-65
2021/06/11 02:11:09;;;;;;;24.55;21.20;;;15.50;99.90;;;;;;5114028;28;20525;-65
2021/06/11 02:13:38;;;;;;;24.80;22.20;;;15.50;99.90;;;;;;5112539;28;20028;-65
2021/06/11 02:16:04;;;;;;;27.90;24.35;;;15.50;99.90;;;;;;5113667;28;20016;-65
2021/06/11 02:18:30;;;;;;;28.08;25.05;;;15.50;99.90;;;;;;5113336;28;20035;-65
2021/06/11 02:20:56;;;;;;;28.20;25.33;;;15.50;99.90;;;;;;5113935;28;20099;-65
2021/06/11 02:23:22;;;;;;;26.83;23.92;;;15.50;99.90;;;;;;5113916;28;20055;-65
2021/06/11 02:25:48;;;;;;;29.52;23.75;;;15.40;99.90;;;;;;5113370;28;20063;-65
2021/06/11 02:28:16;;;;;;;28.42;24.38;;;15.40;99.90;;;;;;5117475;28;20016;-65
2021/06/11 02:30:43;;;;;;;32.38;27.10;;;15.30;99.90;;;;;;5116106;28;20027;-65
2021/06/11 02:33:10;;;;;;;30.75;25.60;;;15.30;99.90;;;;;;5115676;28;20031;-65
2021/06/11 02:35:35;;;;;;;28.30;24.80;;;15.30;99.90;;;;;;5117441;28;20184;-65
2021/06/11 02:38:01;;;;;;;30.95;25.42;;;15.30;99.90;;;;;;5116409;28;20501;-65
2021/06/11 02:40:26;;;;;;;27.98;24.95;;;15.20;99.90;;;;;;5117292;28;20102;-65
2021/06/11 02:42:57;;;;;;;30.25;26.33;;;15.30;99.90;;;;;;5117021;28;20034;-65
2021/06/11 02:45:27;;;;;;;33.35;27.58;;;15.20;99.90;;;;;;5116959;28;20047;-65
2021/06/11 02:48:06;;;;;;;29.67;25.50;;;15.20;99.90;;;;;;5117189;28;20037;-65
2021/06/11 02:50:36;;;;;;;30.92;26.58;;;15.20;99.90;;;;;;5117108;28;20020;-65
2021/06/11 02:53:05;;;;;;;29.80;26.60;;;15.20;99.90;;;;;;5116559;28;20030;-65
2021/06/11 02:55:32;;;;;;;31.92;26.42;;;15.20;99.90;;;;;;5115598;28;20448;-65
2021/06/11 02:58:06;;;;;;;31.27;25.70;;;15.20;99.90;;;;;;5116062;28;20027;-65
2021/06/11 03:00:33;;;;;;;31.38;26.45;;;15.20;99.90;;;;;;5116897;28;20338;-65
2021/06/11 03:03:08;;;;;;;32.97;26.40;;;15.20;99.90;;;;;;5116642;28;20031;-65
2021/06/11 03:05:34;;;;;;;31.00;26.40;;;15.20;99.90;;;;;;5116584;28;20080;-65
2021/06/11 03:08:04;;;;;;;32.45;26.23;;;15.20;99.90;;;;;;5115369;28;20024;-65
2021/06/11 03:10:31;;;;;;;29.67;25.50;;;15.10;99.90;;;;;;5116254;28;20491;-65
2021/06/11 03:13:00;;;;;;;35.70;25.98;;;15.10;99.90;;;;;;5116743;28;20020;-65
2021/06/11 03:15:29;;;;;;;32.28;25.92;;;15.10;99.90;;;;;;5116677;28;20031;-65
2021/06/11 03:17:58;;;;;;;30.73;24.88;;;15.00;99.90;;;;;;5116405;28;20425;-65
2021/06/11 03:20:26;;;;;;;30.45;25.42;;;15.10;99.90;;;;;;5115389;28;20032;-65
2021/06/11 03:23:00;;;;;;;33.95;27.23;;;15.00;99.90;;;;;;5116566;28;20372;-65
2021/06/11 03:25:28;;;;;;;;;;;15.00;99.90;;;;;;5116959;28;20051;-65
2021/06/11 03:27:58;;;;;;;32.50;26.08;;;15.00;99.90;;;;;;5116458;28;20002;-65
2021/06/11 03:30:26;;;;;;;30.88;25.38;;;15.00;99.90;;;;;;5114563;28;20026;-65
2021/06/11 03:32:58;;;;;;;30.05;24.45;;;15.00;99.90;;;;;;5116329;28;20069;-65
2021/06/11 03:35:42;;;;;;;33.03;26.77;;;15.00;99.90;;;;;;5115719;28;20031;-65
2021/06/11 03:38:12;;;;;;;34.55;27.92;;;15.00;99.90;;;;;;5115687;28;20022;-65
2021/06/11 03:40:41;;;;;;;32.72;26.42;;;15.00;99.90;;;;;;5116147;28;20058;-65
2021/06/11 03:43:09;;;;;;;32.72;26.02;;;15.10;99.90;;;;;;5116134;28;20107;-65
2021/06/11 03:45:36;;;;;;;28.92;25.33;;;15.10;99.90;;;;;;5114281;28;20015;-65
2021/06/11 03:48:05;;;;;;;34.10;25.00;;;15.10;99.90;;;;;;5115718;28;20012;-65
2021/06/11 03:50:31;;;;;;;36.00;25.65;;;15.10;99.90;;;;;;5115417;28;20026;-65
2021/06/11 03:52:59;;;;;;;34.03;27.40;;;15.10;99.90;;;;;;5115945;28;20015;-65
2021/06/11 03:55:28;;;;;;;34.28;27.15;;;15.10;99.90;;;;;;5115904;28;20464;-65
2021/06/11 03:58:01;;;;;;;31.95;26.48;;;15.20;99.90;;;;;;5114444;28;20031;-65
2021/06/11 04:00:29;;;;;;;33.75;25.27;;;15.30;99.90;;;;;;5115708;28;20026;-65
2021/06/11 04:02:54;;;;;;;32.95;26.95;;;15.40;99.90;;;;;;5115747;28;20031;-65
2021/06/11 04:05:20;;;;;;;27.42;24.35;;;15.40;99.90;;;;;;5114286;28;20016;-65
2021/06/11 04:08:06;;;;;;;34.30;25.83;;;15.40;99.90;;;;;;5113810;28;20027;-65
2021/06/11 04:10:37;;;;;;;30.80;25.10;;;15.50;99.90;;;;;;5115299;28;20030;-65
2021/06/11 04:13:15;;;;;;;30.02;24.27;;;15.60;99.90;;;;;;5115540;28;20023;-65
2021/06/11 04:15:42;;;;;;;27.20;24.10;;;15.70;99.90;;;;;;5113850;28;20019;-65
2021/06/11 04:18:11;;;;;;;28.45;23.35;;;15.90;99.90;;;;;;5115233;28;20020;-65
2021/06/11 04:20:39;;;;;;;26.58;22.48;;;16.10;99.90;;;;;;5114772;28;20027;-65
2021/06/11 04:23:07;;;;;;;28.35;22.65;;;16.20;99.90;;;;;;5114194;28;20016;-65
2021/06/11 04:25:36;;;;;;;30.77;21.90;;;16.30;99.90;;;;;;5113847;28;20032;-65
2021/06/11 04:28:06;;;;;;;24.25;21.20;;;16.40;99.90;;;;;;5114967;28;20064;-65
2021/06/11 04:30:32;;;;;;;23.20;20.75;;;16.60;99.90;;;;;;5115191;28;20019;-65
2021/06/11 04:32:57;;;;;;;27.35;20.60;;;16.80;99.90;;;;;;5114808;28;20470;-65
2021/06/11 04:35:25;;;;;;;21.95;18.30;;;17.20;99.90;;;;;;5115080;28;20020;-65
2021/06/11 04:37:51;;;;;;;23.05;17.92;;;17.70;99.90;;;;;;5114727;28;20031;-65
2021/06/11 04:40:18;;;;;;;18.63;15.98;;;18.50;99.90;;;;;;5114681;28;20044;-65
2021/06/11 04:42:44;;;;;;;19.88;15.68;;;19.40;99.90;;;;;;5114990;28;20357;-65
2021/06/11 04:45:10;;;;;;;18.05;15.02;;;19.90;99.90;;;;;;5114990;28;20024;-65
2021/06/11 04:47:35;;;;;;;17.80;13.68;;;20.30;99.90;;;;;;5114966;28;20023;-65
2021/06/11 04:50:01;;;;;;;17.23;13.90;;;20.70;99.90;;;;;;5114496;28;20377;-66
2021/06/11 04:52:27;;;;;;;16.50;14.75;;;20.80;99.90;;;;;;5114294;28;20057;-65
2021/06/11 04:54:52;;;;;;;16.17;13.68;;;21.00;99.90;;;;;;5114543;28;20028;-65
2021/06/11 04:57:18;;;;;;;18.35;14.40;;;21.20;99.90;;;;;;5112998;28;20031;-65
2021/06/11 04:59:44;;;;;;;17.58;14.32;;;21.40;99.90;;;;;;5114395;28;20392;-66
2021/06/11 05:02:09;;;;;;;15.45;13.45;;;21.30;99.90;;;;;;5114402;28;20076;-66
2021/06/11 05:04:35;;;;;;;16.42;14.48;;;21.60;99.90;;;;;;5114416;28;20402;-66
2021/06/11 05:07:01;;;;;;;17.35;14.15;;;22.10;99.90;;;;;;5114063;28;20031;-66
2021/06/11 05:09:27;;;;;;;16.92;13.57;;;22.20;99.90;;;;;;5113420;28;20020;-66
2021/06/11 05:11:53;;;;;;;18.73;13.48;;;22.60;99.90;;;;;;5114584;28;20030;-66
2021/06/11 05:14:19;;;;;;;15.57;13.73;;;22.90;99.90;;;;;;5114539;28;20032;-66
2021/06/11 05:16:45;;;;;;;15.07;13.40;;;23.10;99.90;;;;;;5114543;28;20034;-66
2021/06/11 05:19:10;;;;;;;17.52;14.45;;;23.40;99.90;;;;;;5113992;28;20124;-66
2021/06/11 05:21:36;;;;;;;15.68;13.98;;;23.70;99.90;;;;;;5114134;28;20469;-66
2021/06/11 05:24:02;;;;;;;19.05;15.60;;;23.60;99.90;;;;;;5114435;28;20483;-66
2021/06/11 05:26:27;;;;;;;19.27;15.15;;;23.90;99.90;;;;;;5112590;28;20035;-66
2021/06/11 05:28:53;;;;;;;23.42;16.13;;;23.70;99.90;;;;;;5114354;28;20107;-66
2021/06/11 05:31:18;;;;;;;23.40;16.73;;;24.10;99.90;;;;;;5112523;28;20028;-66
2021/06/11 05:33:44;;;;;;;22.38;16.48;;;24.40;99.90;;;;;;5112429;28;20026;-66
2021/06/11 05:36:10;;;;;;;26.25;16.55;;;24.40;99.90;;;;;;5112286;28;20030;-66
2021/06/11 05:38:36;;;;;;;30.80;17.33;;;24.00;99.90;;;;;;5113784;28;20599;-66
2021/06/11 05:41:02;;;;;;;25.17;16.73;;;24.20;99.90;;;;;;5114193;28;20038;-66
2021/06/11 05:43:30;;;;;;;27.70;16.73;;;23.90;99.90;;;;;;5112923;28;20373;-66
2021/06/11 05:45:55;;;;;;;28.73;16.05;;;23.90;99.90;;;;;;5113947;28;20061;-66
2021/06/11 05:48:22;;;;;;;30.50;17.08;;;24.10;99.90;;;;;;5113899;28;20476;-66
2021/06/11 05:50:48;;;;;;;23.98;17.13;;;24.20;99.90;;;;;;5114159;28;20039;-66
2021/06/11 05:53:13;;;;;;;23.85;17.00;;;24.70;99.90;;;;;;5112973;28;20023;-66
2021/06/11 05:55:39;;;;;;;25.50;18.02;;;24.90;99.90;;;;;;5113640;28;20531;-66
2021/06/11 05:58:04;;;;;;;20.55;16.63;;;25.00;99.90;;;;;;5112807;28;20415;-66
2021/06/11 06:00:30;;;;;;;23.35;17.67;;;24.80;99.90;;;;;;5113934;28;20076;-67
2021/06/11 06:02:55;;;;;;;22.58;17.13;;;25.20;99.90;;;;;;5117383;28;20107;-67
2021/06/11 06:05:21;;;;;;;21.55;17.05;;;25.00;99.90;;;;;;5117670;28;20384;-66
2021/06/11 06:07:47;;;;;;;19.45;16.73;;;25.00;99.90;;;;;;5116019;28;20114;-66
2021/06/11 06:10:13;;;;;;;21.50;16.67;;;25.00;99.90;;;;;;5117243;28;20084;-66
2021/06/11 06:12:38;;;;;;;24.65;16.88;;;25.10;99.90;;;;;;5117266;28;20019;-66
2021/06/11 06:15:05;;;;;;;21.50;16.05;;;25.00;99.90;;;;;;5117788;28;20025;-66
2021/06/11 06:17:34;;;;;;;18.42;16.20;;;25.30;99.90;;;;;;5117438;28;20102;-66
2021/06/11 06:20:01;;;;;;;25.42;16.60;;;25.20;99.90;;;;;;5116849;28;20097;-66
2021/06/11 06:22:26;;;;;;;21.95;16.30;;;24.80;99.90;;;;;;5117605;28;20103;-66
2021/06/11 06:24:52;;;;;;;21.58;16.23;;;25.00;99.90;;;;;;5117563;28;20051;-66
2021/06/11 06:27:17;;;;;;;21.92;16.80;;;25.40;99.90;;;;;;5116344;28;20055;-66
2021/06/11 06:29:43;;;;;;;20.88;16.52;;;25.00;99.90;;;;;;5117469;28;20034;-66
2021/06/11 06:32:08;;;;;;;19.92;16.15;;;25.40;99.90;;;;;;5116803;28;20046;-67
2021/06/11 06:34:34;;;;;;;18.48;16.48;;;25.80;99.90;;;;;;5117159;28;20031;-67
2021/06/11 06:36:59;;;;;;;22.52;17.45;;;25.70;99.90;;;;;;5115509;28;20468;-67
2021/06/11 06:39:26;;;;;;;24.40;17.15;;;26.00;99.90;;;;;;5116753;28;20035;-66
2021/06/11 06:41:52;;;;;;;24.55;17.15;;;25.40;99.90;;;;;;5116982;28;20015;-67
2021/06/11 06:44:17;;;;;;;24.55;18.63;;;25.60;99.90;;;;;;5129804;27;20024;-66
2021/06/11 06:46:43;;;;;;;21.13;17.60;;;25.40;99.90;;;;;;5110109;28;20059;-66
2021/06/11 06:49:09;;;;;;;25.63;18.05;;;25.30;99.90;;;;;;5112033;28;20103;-67
2021/06/11 06:51:36;;;;;;;23.00;17.42;;;25.40;99.90;;;;;;5114630;28;20034;-67
2021/06/11 06:54:03;;;;;;;25.25;17.50;;;25.80;99.90;;;;;;5114221;28;20028;-67
2021/06/11 06:56:29;;;;;;;23.08;16.48;;;26.10;99.90;;;;;;5113714;28;20039;-67
2021/06/11 06:58:56;;;;;;;20.98;16.15;;;26.20;99.90;;;;;;5112887;28;20027;-67
2021/06/11 07:01:25;;;;;;;20.88;16.85;;;26.10;99.90;;;;;;5115450;28;20027;-67
2021/06/11 07:03:56;;;;;;;24.88;16.42;;;26.30;99.90;;;;;;5115182;28;20376;-67
2021/06/11 07:06:22;;;;;;;23.13;16.33;;;26.70;99.90;;;;;;5114009;28;20062;-67
2021/06/11 07:08:48;;;;;;;21.80;17.10;;;26.90;99.90;;;;;;5113443;28;20448;-67
2021/06/11 07:11:13;;;;;;;17.10;15.35;;;27.20;99.90;;;;;;5113043;28;20047;-67
2021/06/11 07:13:39;;;;;;;19.05;14.95;;;27.30;99.90;;;;;;5114220;28;20058;-67
2021/06/11 07:16:05;;;;;;;31.00;22.63;;;27.40;99.90;;;;;;5113758;28;20035;-67
2021/06/11 07:18:30;;;;;;;19.10;15.20;;;27.40;99.90;;;;;;5116005;28;20067;-67
2021/06/11 07:20:56;;;;;;;21.23;16.55;;;27.60;99.90;;;;;;5114776;28;20376;-67
2021/06/11 07:23:21;;;;;;;16.98;14.88;;;26.70;99.90;;;;;;5115477;28;20024;-67
2021/06/11 07:25:47;;;;;;;17.40;14.93;;;27.30;99.90;;;;;;5115578;28;20024;-67
2021/06/11 07:28:12;;;;;;;15.98;14.13;;;27.90;99.90;;;;;;5115245;28;20107;-67
2021/06/11 07:30:38;;;;;;;20.10;14.38;;;28.20;99.90;;;;;;5115040;28;20032;-67
2021/06/11 07:33:04;;;;;;;16.77;14.82;;;28.50;99.90;;;;;;5113652;28;20031;-67
2021/06/11 07:35:30;;;;;;;16.45;13.57;;;28.90;99.90;;;;;;5113327;28;20059;-67
2021/06/11 07:37:55;;;;;;;15.20;13.63;;;28.70;99.90;;;;;;5113709;28;20494;-67
2021/06/11 07:40:22;;;;;;;16.60;14.52;;;28.60;99.90;;;;;;5114422;28;20402;-67
2021/06/11 07:42:48;;;;;;;18.13;13.13;;;28.50;99.90;;;;;;5114017;28;20047;-67
2021/06/11 07:45:13;;;;;;;17.25;13.00;;;28.00;99.90;;;;;;5113006;28;20108;-67
2021/06/11 07:47:39;;;;;;;16.20;13.95;;;28.00;99.90;;;;;;5093887;28;20028;-67
2021/06/11 07:50:06;;;;;;;14.13;12.38;;;28.30;99.90;;;;;;5110968;28;20100;-67
2021/06/11 07:52:35;;;;;;;15.00;13.38;;;28.40;99.90;;;;;;5112706;28;20174;-67
2021/06/11 07:55:01;;;;;;;16.08;12.75;;;28.50;99.90;;;;;;5114311;28;20366;-67
2021/06/11 07:57:27;;;;;;;15.95;14.18;;;29.00;99.90;;;;;;5112978;28;20027;-67
2021/06/11 07:59:52;;;;;;;15.15;12.82;;;28.60;99.90;;;;;;5113006;28;20449;-67
2021/06/11 08:02:18;;;;;;;15.38;12.70;;;28.30;99.90;;;;;;5113203;28;20028;-68
2021/06/11 08:04:43;;;;;;;12.95;11.43;;;29.20;99.90;;;;;;5113453;28;20024;-67
2021/06/11 08:07:09;;;;;;;13.35;11.40;;;29.30;99.90;;;;;;5112540;28;20537;-67
2021/06/11 08:09:35;;;;;;;14.75;11.90;;;28.80;99.90;;;;;;5114287;28;20031;-67
2021/06/11 08:12:00;;;;;;;15.68;14.00;;;28.70;99.90;;;;;;5112456;28;20486;-67
2021/06/11 08:14:26;;;;;;;15.63;13.60;;;28.80;99.90;;;;;;5114451;28;20536;-67
2021/06/11 08:16:51;;;;;;;15.00;12.68;;;29.00;99.90;;;;;;5113740;28;20052;-67
2021/06/11 08:19:17;;;;;;;14.07;12.68;;;29.50;99.90;;;;;;5112854;28;20040;-67
2021/06/11 08:21:43;;;;;;;13.60;12.10;;;29.30;99.90;;;;;;5112831;28;20111;-68
2021/06/11 08:24:08;;;;;;;15.93;12.00;;;29.50;99.90;;;;;;5112814;28;20112;-68
2021/06/11 08:26:34;;;;;;;13.70;11.35;;;29.00;99.90;;;;;;5112509;28;20028;-68
2021/06/11 08:29:00;;;;;;;13.82;12.20;;;29.00;99.90;;;;;;5114332;28;20050;-67
2021/06/11 08:31:25;;;;;;;13.95;11.10;;;29.60;99.90;;;;;;5115117;28;20012;-67
2021/06/11 08:33:51;;;;;;;11.73;10.52;;;29.50;99.90;;;;;;5114035;28;20027;-67
2021/06/11 08:36:17;;;;;;;12.68;10.85;;;29.50;99.90;;;;;;5094438;28;20385;-67
2021/06/11 08:38:42;;;;;;;10.88;9.80;;;29.30;99.90;;;;;;5111687;28;20027;-67
2021/06/11 08:41:12;;;;;;;11.32;10.13;;;29.00;99.90;;;;;;5113392;28;20035;-67
2021/06/11 08:43:37;;;;;;;13.25;11.02;;;28.60;99.90;;;;;;5114186;28;20383;-67
2021/06/11 08:46:04;;;;;;;13.13;11.02;;;28.40;99.90;;;;;;5112503;28;20028;-67
2021/06/11 08:48:29;;;;;;;13.02;11.63;;;28.80;99.90;;;;;;5113787;28;20031;-67
2021/06/11 08:50:55;;;;;;;11.20;10.10;;;28.90;99.90;;;;;;5114440;28;20111;-67
2021/06/11 08:53:21;;;;;;;11.07;9.85;;;28.60;99.90;;;;;;5095346;28;20106;-67
2021/06/11 08:55:47;;;;;;;16.92;11.75;;;28.60;99.90;;;;;;5114087;28;20020;-67
2021/06/11 08:58:13;;;;;;;15.30;12.07;;;28.90;99.90;;;;;;5109388;28;20374;-67
2021/06/11 09:00:39;;;;;;;13.65;11.93;;;29.10;99.90;;;;;;5109985;28;20037;-67
2021/06/11 09:03:26;;;;;;;14.82;11.85;;;29.40;99.90;;;;;;5110413;28;20380;-67
2021/06/11 09:08:54;;;;;;;13.45;11.73;;;29.50;99.90;;;;;;5102712;27;20931;-67
2021/06/11 09:11:26;;;;;;;15.15;12.80;;;29.00;99.90;;;;;;5075651;28;20020;-67
2021/06/11 09:14:12;;;;;;;15.90;13.88;;;28.30;99.90;;;;;;5068929;28;20033;-66
2021/06/11 09:16:45;;;;;;;16.35;13.05;;;27.40;99.90;;;;;;5068932;28;20111;-67
2021/06/11 09:19:13;;;;;;;13.32;11.45;;;27.90;99.90;;;;;;5057807;28;20021;-66
2021/06/11 09:21:42;;;;;;;18.58;13.45;;;28.10;99.90;;;;;;5072658;28;20466;-66
2021/06/11 09:27:13;;;;;;;14.73;13.23;;;28.10;99.90;;;;;;5099077;27;20407;-67
2021/06/11 09:29:43;;;;;;;19.55;12.77;;;28.80;99.90;;;;;;5071589;28;20032;-67
2021/06/11 09:32:27;;;;;;;16.88;13.73;;;29.20;99.90;;;;;;5076100;28;20017;-67
2021/06/11 09:34:56;;;;;;;16.38;14.68;;;30.70;99.70;;;;;;5068096;28;20033;-67
2021/06/11 09:37:27;;;;;;;15.80;13.40;;;30.40;99.70;;;;;;5070371;28;20021;-67
2021/06/11 09:39:56;;;;;;;16.02;11.90;;;30.50;99.70;;;;;;5084778;28;20032;-67
2021/06/11 09:42:25;;;;;;;16.38;12.73;;;31.20;99.40;;;;;;5072006;28;20024;-67
2021/06/11 09:44:53;;;;;;;16.52;13.98;;;30.50;99.50;;;;;;5069364;28;20051;-67
2021/06/11 09:47:41;;;;;;;15.02;11.40;;;30.00;99.80;;;;;;5069254;28;20020;-67
2021/06/11 09:50:12;;;;;;;11.82;9.82;;;30.40;99.90;;;;;;5068073;28;20021;-66
2021/06/11 09:53:01;;;;;;;12.88;11.48;;;30.20;99.90;;;;;;5070294;28;20021;-66
2021/06/11 09:55:30;;;;;;;11.77;10.57;;;29.00;99.90;;;;;;5069759;28;20068;-67
2021/06/11 09:58:08;;;;;;;11.73;10.57;;;28.40;99.90;;;;;;5068496;28;20036;-66
2021/06/11 10:00:36;;;;;;;15.90;10.80;;;27.80;99.90;;;;;;5073629;28;20104;-66
2021/06/11 10:03:08;;;;;;;13.73;10.63;;;27.30;99.90;;;;;;5067686;28;20036;-66
2021/06/11 10:05:34;;;;;;;11.85;10.57;;;26.50;99.90;;;;;;5068374;28;20025;-66
2021/06/11 10:07:59;;;;;;;11.82;9.43;;;26.70;99.90;;;;;;5074191;28;20033;-66
2021/06/11 10:10:25;;;;;;;17.75;11.10;;;27.80;99.90;;;;;;5069881;28;20021;-66
2021/06/11 10:12:51;;;;;;;12.60;10.10;;;29.20;99.90;;;;;;5073902;28;20052;-66
2021/06/11 10:15:17;;;;;;;11.68;10.48;;;30.60;99.60;;;;;;5068731;28;20528;-66
2021/06/11 10:17:43;;;;;;;11.82;9.65;;;30.30;98.80;;;;;;5078888;28;20055;-67
2021/06/11 10:20:10;;;;;;;13.40;10.18;;;30.20;99.30;;;;;;5075836;28;20083;-67
2021/06/11 10:22:38;;;;;;;12.85;8.90;;;29.40;99.40;;;;;;5069555;28;20028;-66
2021/06/11 10:25:08;;;;;;;12.23;9.02;;;28.50;99.90;;;;;;5069506;28;20075;-66
2021/06/11 10:27:35;;;;;;;12.57;8.93;;;29.20;99.90;;;;;;5079122;28;20465;-66
2021/06/11 10:30:02;;;;;;;10.70;8.93;;;29.80;99.40;;;;;;5078708;28;20081;-66
2021/06/11 10:32:28;;;;;;;10.07;8.00;;;29.50;99.90;;;;;;5067553;28;20021;-66
2021/06/11 10:34:55;;;;;;;6.95;6.30;;;29.30;99.50;;;;;;5068004;28;20428;-66
2021/06/11 10:37:42;;;;;;;11.40;7.13;;;28.80;99.90;;;;;;5061030;28;20035;-66
2021/06/11 10:40:33;;;;;;;8.27;7.40;;;29.20;99.90;;;;;;5069689;28;20037;-66
2021/06/11 10:43:23;;;;;;;9.75;7.75;;;29.50;98.80;;;;;;5055298;28;20382;-66
2021/06/11 10:45:50;;;;;;;11.15;6.57;;;29.00;99.60;;;;;;5054022;28;20029;-66
2021/06/11 10:48:16;;;;;;;8.38;6.47;;;28.60;99.90;;;;;;5054228;28;20021;-66
2021/06/11 10:50:43;;;;;;;6.47;5.88;;;28.40;99.90;;;;;;5055112;28;20017;-66
2021/06/11 10:53:13;;;;;;;8.05;6.25;;;28.80;99.90;;;;;;5054525;28;20450;-66
2021/06/11 10:55:46;;;;;;;10.68;6.35;;;28.60;99.10;;;;;;5055468;28;20029;-66
2021/06/11 11:01:24;;;;;;;8.02;6.03;;;28.60;99.90;;;;;;5142565;27;20305;-66
2021/06/11 11:03:51;;;;;;;9.32;6.53;;;27.70;99.90;;;;;;5106859;28;20052;-66
2021/06/11 11:06:33;;;;;;;10.60;7.43;;;27.10;99.90;;;;;;5102529;28;20103;-66
2021/06/11 11:09:03;;;;;;;6.90;6.20;;;27.00;99.90;;;;;;5094389;28;20174;-66
2021/06/11 11:11:32;;;;;;;7.65;6.22;;;27.90;99.90;;;;;;5127343;27;20034;-66
2021/06/11 11:13:59;;;;;;;10.38;6.95;;;28.30;99.90;;;;;;5097624;28;20481;-66
2021/06/11 11:16:27;;;;;;;9.38;6.38;;;28.50;99.90;;;;;;5109791;28;20042;-66
2021/06/11 11:18:53;;;;;;;5.63;5.13;;;28.20;99.90;;;;;;5114776;27;20104;-66
2021/06/11 11:21:31;;;;;;;7.65;4.38;;;28.40;99.70;;;;;;5099413;28;20012;-66
2021/06/11 11:23:59;;;;;;;6.20;4.78;;;28.70;98.00;;;;;;5106099;28;20533;-66
2021/06/11 11:26:47;;;;;;;9.10;7.32;;;28.60;99.30;;;;;;5110703;27;20097;-66
2021/06/11 11:29:15;;;;;;;7.07;6.28;;;27.80;99.90;;;;;;5107818;28;20020;-66
2021/06/11 11:31:42;;;;;;;9.68;6.28;;;28.10;99.90;;;;;;5112092;28;20504;-66
2021/06/11 11:34:08;;;;;;;7.40;6.22;;;27.80;99.90;;;;;;5101438;28;20025;-66
2021/06/11 11:36:35;;;;;;;8.63;5.03;;;28.10;99.90;;;;;;5107997;28;20016;-67
2021/06/11 11:39:04;;;;;;;8.40;6.75;;;28.60;99.90;;;;;;5111107;28;20023;-66
2021/06/11 11:41:29;;;;;;;6.38;5.68;;;27.90;99.90;;;;;;5113316;27;20064;-66
2021/06/11 11:43:55;;;;;;;7.18;5.53;;;27.50;99.90;;;;;;5105047;28;20566;-66
2021/06/11 11:46:21;;;;;;;6.45;5.47;;;27.50;99.90;;;;;;5115528;28;20021;-66
2021/06/11 11:48:46;;;;;;;4.03;3.60;;;27.70;99.90;;;;;;5107898;28;20028;-66
2021/06/11 11:51:12;;;;;;;4.53;4.10;;;28.30;99.90;;;;;;5108912;28;20066;-66
2021/06/11 11:53:39;;;;;;;7.05;5.85;;;28.70;98.70;;;;;;5109008;28;20024;-66
2021/06/11 11:56:05;;;;;;;6.13;5.53;;;27.90;99.90;;;;;;5109165;28;20173;-66
2021/06/11 11:58:30;;;;;;;6.00;4.88;;;27.60;99.90;;;;;;5090248;28;20537;-66
2021/06/11 12:00:56;;;;;;;6.38;5.38;;;27.50;99.90;;;;;;5103767;28;20024;-66
2021/06/11 12:03:21;;;;;;;5.60;5.10;;;27.40;99.90;;;;;;5110035;28;20102;-66
2021/06/11 12:05:47;;;;;;;5.80;5.30;;;27.80;99.90;;;;;;5093011;28;20031;-66
2021/06/11 12:08:13;;;;;;;5.50;4.57;;;27.70;99.90;;;;;;5101310;28;20063;-66
2021/06/11 12:10:38;;;;;;;7.68;6.05;;;27.50;99.90;;;;;;5096979;28;20035;-66
2021/06/11 12:13:04;;;;;;;7.93;6.40;;;27.50;99.90;;;;;;5098957;28;20031;-66
2021/06/11 12:15:29;;;;;;;6.85;6.13;;;26.90;99.90;;;;;;5107486;28;20027;-66
2021/06/11 12:17:57;;;;;;;6.28;5.72;;;26.80;99.90;;;;;;5105268;28;20059;-66
2021/06/11 12:20:23;;;;;;;8.18;5.85;;;27.20;99.90;;;;;;5093871;28;20053;-66
2021/06/11 12:22:49;;;;;;;5.68;4.78;;;27.60;99.90;;;;;;5086056;28;20020;-66
2021/06/11 12:25:14;;;;;;;5.32;4.70;;;27.90;99.60;;;;;;5095319;28;20366;-66
2021/06/11 12:27:40;;;;;;;6.65;5.10;;;28.30;99.90;;;;;;5095087;28;20035;-66
2021/06/11 12:30:06;;;;;;;8.38;4.55;;;28.30;99.90;;;;;;5094674;28;20076;-66
2021/06/11 12:32:32;;;;;;;4.93;4.35;;;28.40;99.90;;;;;;5101715;28;20038;-66
2021/06/11 12:34:58;;;;;;;7.40;4.60;;;28.50;99.90;;;;;;5096984;28;20036;-66
2021/06/11 12:37:23;;;;;;;7.72;4.47;;;28.90;99.90;;;;;;5081432;28;20557;-67
2021/06/11 12:39:51;;;;;;;6.18;5.00;;;29.10;98.60;;;;;;5104613;28;20028;-66
2021/06/11 12:42:20;;;;;;;8.13;5.70;;;28.80;98.10;;;;;;5085203;28;20385;-67